Time;durP1;ratioP1;P1;durP2;ratioP2;P2;SDS_P1;SDS_P2;PMS_P1;PMS_P2;Temp;Humidity;BMP_temperature;BMP_pressure;BME280_temperature;BME280_humidity;BME280_pressure;Samples;Min_cycle;Max_cycle;Signal;HPM_P1;HPM_P2
2022/01/09 00:00:36;;;;;;;1.07;0.80;;;;;;;;;;5079274;28;20440;-51
2022/01/09 00:03:15;;;;;;;1.30;0.70;;;;;;;;;;5075944;28;20443;-50
2022/01/09 00:05:43;;;;;;;1.10;0.70;;;;;;;;;;5078017;28;20944;-49
2022/01/09 00:08:14;;;;;;;2.53;1.10;;;;;;;;;;5039585;28;20621;-50
2022/01/09 00:10:53;;;;;;;0.80;0.60;;;;;;;;;;5063939;27;21947;-50
2022/01/09 00:13:22;;;;;;;1.30;0.90;;;;;;;;;;5067172;28;20526;-49
2022/01/09 00:15:48;;;;;;;2.33;1.10;;;;;;;;;;5077854;28;20478;-49
2022/01/09 00:18:15;;;;;;;1.00;0.60;;;;;;;;;;5074842;28;20978;-49
2022/01/09 00:20:41;;;;;;;1.10;0.80;;;;;;;;;;5081657;28;20475;-49
2022/01/09 00:23:07;;;;;;;1.13;0.70;;;;;;;;;;5053762;28;20813;-49
2022/01/09 00:25:36;;;;;;;1.43;0.70;;;;;;;;;;5080431;28;20565;-51
2022/01/09 00:28:01;;;;;;;1.97;1.37;;;;;;;;;;5072545;28;20523;-48
2022/01/09 00:30:32;;;;;;;3.53;0.60;;;;;;;;;;5080143;28;20482;-50
2022/01/09 00:33:00;;;;;;;0.80;0.60;;;;;;;;;;5054669;28;20436;-50
2022/01/09 00:35:28;;;;;;;1.23;0.83;;;;;;;;;;5075268;28;20500;-50
2022/01/09 00:37:55;;;;;;;0.90;0.70;;;;;;;;;;5044292;28;20452;-50
2022/01/09 00:40:36;;;;;;;0.90;0.60;;;;;;;;;;5080689;28;20681;-50
2022/01/09 00:43:02;;;;;;;1.00;0.90;;;;;;;;;;5059491;28;20949;-50
2022/01/09 00:45:28;;;;;;;3.83;0.83;;;;;;;;;;5064962;28;20527;-50
2022/01/09 00:47:56;;;;;;;0.93;0.60;;;;;;;;;;5071724;28;20545;-51
2022/01/09 00:50:22;;;;;;;0.87;0.57;;;;;;;;;;5078606;28;20856;-50
2022/01/09 00:52:52;;;;;;;0.73;0.60;;;;;;;;;;5067820;28;20463;-51
2022/01/09 00:55:19;;;;;;;1.00;0.67;;;;;;;;;;5077620;28;21373;-50
2022/01/09 00:57:46;;;;;;;0.90;0.60;;;;;;;;;;5061752;28;21597;-52
2022/01/09 01:00:28;;;;;;;0.80;0.60;;;;;;;;;;5063363;28;20706;-52
2022/01/09 01:02:58;;;;;;;1.00;0.70;;;;;;;;;;5060334;28;20444;-49
2022/01/09 01:05:24;;;;;;;0.90;0.60;;;;;;;;;;5078589;28;20451;-48
2022/01/09 01:07:50;;;;;;;0.80;0.60;;;;;;;;;;5038347;28;20444;-49
2022/01/09 01:10:16;;;;;;;0.83;0.60;;;;;;;;;;5075602;28;20503;-50
2022/01/09 01:12:42;;;;;;;0.80;0.50;;;;;;;;;;5044589;28;20447;-50
2022/01/09 01:15:12;;;;;;;0.80;0.50;;;;;;;;;;5079719;28;20444;-51
2022/01/09 01:17:38;;;;;;;0.97;0.40;;;;;;;;;;5073836;28;20769;-52
2022/01/09 01:20:06;;;;;;;0.70;0.50;;;;;;;;;;5081199;28;20439;-50
2022/01/09 01:22:44;;;;;;;1.00;0.60;;;;;;;;;;5062315;28;20440;-49
2022/01/09 01:25:13;;;;;;;1.37;0.97;;;;;;;;;;5050900;28;20444;-49
2022/01/09 01:27:39;;;;;;;0.90;0.73;;;;;;;;;;5051130;28;20747;-49
2022/01/09 01:30:08;;;;;;;0.70;0.53;;;;;;;;;;5078430;28;20486;-51
2022/01/09 01:32:44;;;;;;;0.90;0.60;;;;;;;;;;5075772;28;20465;-50
2022/01/09 01:35:14;;;;;;;0.70;0.50;;;;;;;;;;5077233;28;20446;-49
2022/01/09 01:37:46;;;;;;;0.80;0.60;;;;;;;;;;5056713;28;20448;-50
2022/01/09 01:40:14;;;;;;;0.83;0.57;;;;;;;;;;5076969;28;20443;-50
2022/01/09 01:42:40;;;;;;;0.80;0.50;;;;;;;;;;5054648;28;20568;-48
2022/01/09 01:45:07;;;;;;;0.70;0.50;;;;;;;;;;5077183;28;21269;-48
2022/01/09 01:47:46;;;;;;;0.80;0.57;;;;;;;;;;5075645;28;20991;-50
2022/01/09 01:50:14;;;;;;;0.80;0.50;;;;;;;;;;5076839;28;22082;-50
2022/01/09 01:52:53;;;;;;;0.80;0.50;;;;;;;;;;5074427;28;20431;-51
2022/01/09 01:55:36;;;;;;;0.70;0.50;;;;;;;;;;5078576;28;20580;-50
2022/01/09 01:58:02;;;;;;;0.70;0.50;;;;;;;;;;5074845;28;20504;-54
2022/01/09 02:00:28;;;;;;;0.90;0.60;;;;;;;;;;5066870;28;20981;-48
2022/01/09 02:02:54;;;;;;;0.80;0.50;;;;;;;;;;5055743;28;20433;-50
2022/01/09 02:05:20;;;;;;;0.70;0.50;;;;;;;;;;5076242;28;20439;-49
2022/01/09 02:07:46;;;;;;;0.80;0.50;;;;;;;;;;5061875;28;21064;-50
2022/01/09 02:10:12;;;;;;;0.80;0.50;;;;;;;;;;5043882;28;20467;-49
2022/01/09 02:12:40;;;;;;;0.80;0.60;;;;;;;;;;5078445;28;20448;-49
2022/01/09 02:15:27;;;;;;;0.80;0.60;;;;;;;;;;5057544;28;20466;-49
2022/01/09 02:17:55;;;;;;;0.80;0.50;;;;;;;;;;5079730;28;20433;-51
2022/01/09 02:20:22;;;;;;;0.80;0.50;;;;;;;;;;5073747;28;20438;-48
2022/01/09 02:22:51;;;;;;;1.63;0.60;;;;;;;;;;5077630;28;20444;-50
2022/01/09 02:25:18;;;;;;;0.80;0.50;;;;;;;;;;5061653;28;20436;-55
2022/01/09 02:27:48;;;;;;;0.80;0.53;;;;;;;;;;5085821;28;20464;-50
2022/01/09 02:30:16;;;;;;;0.70;0.50;;;;;;;;;;5064105;28;20523;-50
2022/01/09 02:32:41;;;;;;;0.80;0.60;;;;;;;;;;5064877;28;20436;-48
2022/01/09 02:35:16;;;;;;;0.80;0.50;;;;;;;;;;5052470;28;20441;-49
2022/01/09 02:37:42;;;;;;;0.80;0.60;;;;;;;;;;5056680;28;20439;-48
2022/01/09 02:40:09;;;;;;;0.90;0.53;;;;;;;;;;5091368;28;20527;-51
2022/01/09 02:42:43;;;;;;;0.77;0.47;;;;;;;;;;5083741;28;20460;-51
2022/01/09 02:45:10;;;;;;;0.80;0.70;;;;;;;;;;5088100;28;20447;-50
2022/01/09 02:47:49;;;;;;;1.77;0.60;;;;;;;;;;5074589;28;20471;-50
2022/01/09 02:52:50;;;;;;;0.80;0.60;;;;;;;;;;5066533;28;20471;-48
2022/01/09 02:55:17;;;;;;;1.10;0.70;;;;;;;;;;5079477;28;20452;-48
2022/01/09 02:57:43;;;;;;;0.90;0.60;;;;;;;;;;5064216;28;20806;-49
2022/01/09 03:00:14;;;;;;;0.80;0.60;;;;;;;;;;5027587;28;20447;-49
2022/01/09 03:02:51;;;;;;;0.80;0.60;;;;;;;;;;5072255;28;20441;-50
2022/01/09 03:05:19;;;;;;;0.70;0.50;;;;;;;;;;5057757;28;21179;-50
2022/01/09 03:07:46;;;;;;;0.80;0.53;;;;;;;;;;5084095;28;20443;-49
2022/01/09 03:10:13;;;;;;;1.20;0.60;;;;;;;;;;5064039;28;20487;-49
2022/01/09 03:12:39;;;;;;;0.80;0.60;;;;;;;;;;5079209;28;20880;-48
2022/01/09 03:15:05;;;;;;;0.80;0.53;;;;;;;;;;5047454;28;20685;-48
2022/01/09 03:17:31;;;;;;;0.80;0.50;;;;;;;;;;5080999;28;20444;-50
2022/01/09 03:19:57;;;;;;;1.00;0.60;;;;;;;;;;5077124;28;20488;-49
2022/01/09 03:22:31;;;;;;;0.90;0.70;;;;;;;;;;5082199;28;20438;-51
2022/01/09 03:24:58;;;;;;;2.10;0.90;;;;;;;;;;5053418;28;21051;-49
2022/01/09 03:27:24;;;;;;;0.80;0.50;;;;;;;;;;5077386;28;20436;-49
2022/01/09 03:30:01;;;;;;;0.80;0.50;;;;;;;;;;5068930;28;20483;-50
2022/01/09 03:32:31;;;;;;;0.90;0.70;;;;;;;;;;5076221;28;20439;-48
2022/01/09 03:34:56;;;;;;;0.80;0.50;;;;;;;;;;5052785;28;20694;-51
2022/01/09 03:37:22;;;;;;;0.80;0.50;;;;;;;;;;5081278;28;20448;-49
2022/01/09 03:39:48;;;;;;;3.23;0.60;;;;;;;;;;5062659;28;20562;-50
2022/01/09 03:42:14;;;;;;;0.80;0.60;;;;;;;;;;5079129;28;20484;-49
2022/01/09 03:45:13;;;;;;;0.90;0.70;;;;;;;;;;5072585;28;20444;-50
2022/01/09 03:47:47;;;;;;;1.30;0.57;;;;;;;;;;5064717;28;22095;-49
2022/01/09 03:50:13;;;;;;;1.03;0.67;;;;;;;;;;5078749;28;20565;-48
2022/01/09 03:52:40;;;;;;;0.80;0.50;;;;;;;;;;5074458;28;20519;-48
2022/01/09 03:55:07;;;;;;;0.80;0.53;;;;;;;;;;5082528;28;20870;-50
2022/01/09 03:57:34;;;;;;;3.07;0.70;;;;;;;;;;5045774;28;20460;-49
2022/01/09 04:00:01;;;;;;;1.00;0.70;;;;;;;;;;5079172;28;20887;-49
2022/01/09 04:02:28;;;;;;;1.00;0.50;;;;;;;;;;5052662;28;20898;-49
2022/01/09 04:04:57;;;;;;;0.80;0.60;;;;;;;;;;5078561;28;20787;-50
2022/01/09 04:07:23;;;;;;;0.90;0.60;;;;;;;;;;5059956;28;20431;-49
2022/01/09 04:09:49;;;;;;;0.80;0.50;;;;;;;;;;5078709;28;20476;-48
2022/01/09 04:12:19;;;;;;;1.83;0.50;;;;;;;;;;5069739;28;20531;-50
2022/01/09 04:14:49;;;;;;;0.80;0.60;;;;;;;;;;5065333;28;20450;-50
2022/01/09 04:17:19;;;;;;;1.33;0.73;;;;;;;;;;5021696;28;20454;-50
2022/01/09 04:19:52;;;;;;;0.70;0.40;;;;;;;;;;5075773;28;21059;-50
2022/01/09 04:22:18;;;;;;;1.00;0.50;;;;;;;;;;5071921;28;20444;-50
2022/01/09 04:24:44;;;;;;;1.00;0.50;;;;;;;;;;5075897;28;20448;-50
2022/01/09 04:27:19;;;;;;;0.90;0.60;;;;;;;;;;5061797;28;20471;-50
2022/01/09 04:29:45;;;;;;;1.63;0.50;;;;;;;;;;5079205;28;20513;-48
2022/01/09 04:32:21;;;;;;;0.87;0.53;;;;;;;;;;5046974;28;20478;-50
2022/01/09 04:34:48;;;;;;;0.80;0.60;;;;;;;;;;5081379;28;20481;-49
2022/01/09 04:37:14;;;;;;;1.27;1.17;;;;;;;;;;5055251;28;20452;-49
2022/01/09 04:39:41;;;;;;;3.27;0.60;;;;;;;;;;5081335;28;20471;-51
2022/01/09 04:42:08;;;;;;;0.80;0.50;;;;;;;;;;5073724;28;20489;-49
2022/01/09 04:44:34;;;;;;;0.83;0.50;;;;;;;;;;5060611;28;20444;-49
2022/01/09 04:47:07;;;;;;;0.80;0.53;;;;;;;;;;5076787;28;20459;-51
2022/01/09 04:49:39;;;;;;;0.80;0.60;;;;;;;;;;5050894;28;20476;-50
2022/01/09 04:52:08;;;;;;;0.80;0.60;;;;;;;;;;5075989;28;20439;-49
2022/01/09 04:54:38;;;;;;;0.80;0.50;;;;;;;;;;5057077;28;20444;-49
2022/01/09 04:57:04;;;;;;;1.50;1.40;;;;;;;;;;5067540;28;20455;-48
2022/01/09 04:59:30;;;;;;;0.80;0.50;;;;;;;;;;5073041;28;20944;-49
2022/01/09 05:01:56;;;;;;;0.80;0.53;;;;;;;;;;5082162;28;20440;-49
2022/01/09 05:04:36;;;;;;;1.10;0.80;;;;;;;;;;5067051;28;20440;-50
2022/01/09 05:07:08;;;;;;;1.20;0.77;;;;;;;;;;5082202;28;20444;-52
2022/01/09 05:09:51;;;;;;;0.80;0.50;;;;;;;;;;5093376;28;20481;-51
2022/01/09 05:12:25;;;;;;;0.70;0.50;;;;;;;;;;5069844;28;20447;-50
2022/01/09 05:14:56;;;;;;;1.00;0.50;;;;;;;;;;5076977;28;20436;-49
2022/01/09 05:17:23;;;;;;;0.70;0.50;;;;;;;;;;5076985;28;20501;-53
2022/01/09 05:19:52;;;;;;;0.80;0.60;;;;;;;;;;5046820;28;22823;-50
2022/01/09 05:22:26;;;;;;;0.80;0.50;;;;;;;;;;5084027;28;20440;-51
2022/01/09 05:24:58;;;;;;;0.77;0.50;;;;;;;;;;5080017;28;20440;-51
2022/01/09 05:27:35;;;;;;;0.70;0.50;;;;;;;;;;5070947;28;20464;-51
2022/01/09 05:30:04;;;;;;;0.80;0.50;;;;;;;;;;5080801;28;21072;-50
2022/01/09 05:32:34;;;;;;;0.80;0.50;;;;;;;;;;5081429;28;20507;-50
2022/01/09 05:35:01;;;;;;;0.70;0.50;;;;;;;;;;5052567;28;20467;-51
2022/01/09 05:37:30;;;;;;;0.70;0.50;;;;;;;;;;5079073;28;21556;-51
2022/01/09 05:39:58;;;;;;;0.80;0.50;;;;;;;;;;5054418;28;22100;-51
2022/01/09 05:42:32;;;;;;;0.70;0.40;;;;;;;;;;5052968;28;20443;-52
2022/01/09 05:45:03;;;;;;;0.73;0.60;;;;;;;;;;5050712;28;20444;-49
2022/01/09 05:47:29;;;;;;;0.70;0.50;;;;;;;;;;5076581;28;20436;-53
2022/01/09 05:49:55;;;;;;;0.70;0.50;;;;;;;;;;5046930;28;20595;-49
2022/01/09 05:52:23;;;;;;;0.80;0.50;;;;;;;;;;5075723;28;21433;-49
2022/01/09 05:55:00;;;;;;;1.00;0.70;;;;;;;;;;5053528;28;20457;-50
2022/01/09 05:57:31;;;;;;;0.70;0.40;;;;;;;;;;5079792;28;20454;-51
2022/01/09 05:59:57;;;;;;;0.90;0.60;;;;;;;;;;5078955;28;20440;-50
2022/01/09 06:02:33;;;;;;;0.80;0.50;;;;;;;;;;5080285;28;20440;-53
2022/01/09 06:05:07;;;;;;;1.67;1.37;;;;;;;;;;5075886;28;20443;-50
2022/01/09 06:07:35;;;;;;;0.93;0.50;;;;;;;;;;5081644;28;20433;-50
2022/01/09 06:10:14;;;;;;;1.83;0.63;;;;;;;;;;5062220;28;21507;-52
2022/01/09 06:12:44;;;;;;;0.80;0.60;;;;;;;;;;5087719;28;20439;-50
2022/01/09 06:15:28;;;;;;;1.90;0.60;;;;;;;;;;5057347;28;20447;-51
2022/01/09 06:17:59;;;;;;;1.07;0.70;;;;;;;;;;5077644;28;20437;-50
2022/01/09 06:20:26;;;;;;;0.80;0.50;;;;;;;;;;5025446;28;20439;-50
2022/01/09 06:22:52;;;;;;;2.70;0.70;;;;;;;;;;5081190;28;20443;-50
2022/01/09 06:25:22;;;;;;;1.67;0.90;;;;;;;;;;5076785;28;20444;-51
2022/01/09 06:27:59;;;;;;;0.97;0.80;;;;;;;;;;5080681;28;20479;-50
2022/01/09 06:30:28;;;;;;;2.30;0.70;;;;;;;;;;5064430;28;20464;-50
2022/01/09 06:33:03;;;;;;;0.80;0.50;;;;;;;;;;5066335;28;20432;-52
2022/01/09 06:35:36;;;;;;;1.30;0.90;;;;;;;;;;5057542;28;20522;-51
2022/01/09 06:38:10;;;;;;;2.23;0.60;;;;;;;;;;5072095;28;20486;-52
2022/01/09 06:40:51;;;;;;;1.00;0.50;;;;;;;;;;5064587;28;20443;-50
2022/01/09 06:43:18;;;;;;;1.10;0.63;;;;;;;;;;5079196;28;20559;-51
2022/01/09 06:45:50;;;;;;;1.63;0.70;;;;;;;;;;5056834;28;20545;-55
2022/01/09 06:48:17;;;;;;;0.80;0.57;;;;;;;;;;5079480;28;20445;-51
2022/01/09 06:50:49;;;;;;;0.77;0.53;;;;;;;;;;5042505;28;20478;-52
2022/01/09 06:53:16;;;;;;;0.73;0.50;;;;;;;;;;5066646;28;20772;-50
2022/01/09 06:55:48;;;;;;;0.90;0.80;;;;;;;;;;5080070;28;20432;-51
2022/01/09 06:58:18;;;;;;;1.77;0.80;;;;;;;;;;5063051;28;20469;-50
2022/01/09 07:00:46;;;;;;;2.03;0.80;;;;;;;;;;5062690;28;20718;-50
2022/01/09 07:03:13;;;;;;;1.13;0.67;;;;;;;;;;5082434;28;20434;-49
2022/01/09 07:05:39;;;;;;;1.67;0.97;;;;;;;;;;5082307;28;20714;-48
2022/01/09 07:08:05;;;;;;;0.90;0.60;;;;;;;;;;5081427;28;20421;-49
2022/01/09 07:10:31;;;;;;;5.17;0.90;;;;;;;;;;5055515;28;20582;-49
2022/01/09 07:12:58;;;;;;;2.20;1.77;;;;;;;;;;5083819;28;20497;-50
2022/01/09 07:15:32;;;;;;;0.80;0.70;;;;;;;;;;5049434;28;20824;-54
2022/01/09 07:17:59;;;;;;;4.40;1.13;;;;;;;;;;5082874;28;21079;-50
2022/01/09 07:20:31;;;;;;;2.03;0.90;;;;;;;;;;5029203;28;20465;-52
2022/01/09 07:23:12;;;;;;;0.97;0.70;;;;;;;;;;5066276;28;20480;-51
2022/01/09 07:25:47;;;;;;;2.57;1.00;;;;;;;;;;5075853;28;20917;-51
2022/01/09 07:28:18;;;;;;;5.23;1.10;;;;;;;;;;5053557;28;20436;-51
2022/01/09 07:30:52;;;;;;;5.00;1.40;;;;;;;;;;5081682;28;20498;-50
2022/01/09 07:33:18;;;;;;;1.83;0.80;;;;;;;;;;5081356;28;20472;-52
2022/01/09 07:35:45;;;;;;;1.53;1.20;;;;;;;;;;5083004;28;20516;-50
2022/01/09 07:38:15;;;;;;;5.60;2.30;;;;;;;;;;5072147;28;20941;-53
2022/01/09 07:40:42;;;;;;;3.80;1.97;;;;;;;;;;5049024;28;20444;-51
2022/01/09 07:43:10;;;;;;;1.83;1.13;;;;;;;;;;5082187;28;21137;-51
2022/01/09 07:45:41;;;;;;;5.63;1.53;;;;;;;;;;5061022;28;20439;-52
2022/01/09 07:48:25;;;;;;;4.17;1.73;;;;;;;;;;5080132;28;20433;-50
2022/01/09 07:50:57;;;;;;;4.40;1.10;;;;;;;;;;5040185;28;20471;-49
2022/01/09 07:53:34;;;;;;;1.90;1.00;;;;;;;;;;5081135;28;21205;-51
2022/01/09 07:56:01;;;;;;;5.50;1.40;;;;;;;;;;5040900;28;20439;-50
2022/01/09 07:58:30;;;;;;;3.03;1.67;;;;;;;;;;5079192;28;20440;-51
2022/01/09 08:01:17;;;;;;;8.83;1.50;;;;;;;;;;5055431;28;20550;-51
2022/01/09 08:04:05;;;;;;;2.40;1.10;;;;;;;;;;5078873;28;20471;-51
2022/01/09 08:06:34;;;;;;;4.07;1.57;;;;;;;;;;5078711;28;20431;-51
2022/01/09 08:09:01;;;;;;;2.57;1.80;;;;;;;;;;5080917;28;20810;-51
2022/01/09 08:11:27;;;;;;;7.70;1.93;;;;;;;;;;5064398;28;20479;-50
2022/01/09 08:13:55;;;;;;;1.93;1.40;;;;;;;;;;5083278;28;20436;-51
2022/01/09 08:16:37;;;;;;;11.13;1.60;;;;;;;;;;5047376;28;20452;-51
2022/01/09 08:19:09;;;;;;;3.03;1.47;;;;;;;;;;5084005;28;20444;-50
2022/01/09 08:21:58;;;;;;;10.83;1.97;;;;;;;;;;5046720;28;20441;-52
2022/01/09 08:27:31;;;;;;;3.20;2.17;;;;;;;;;;5068402;28;21862;-51
2022/01/09 08:30:19;;;;;;;3.30;1.50;;;;;;;;;;5072793;28;20478;-52
2022/01/09 08:32:52;;;;;;;1.60;1.10;;;;;;;;;;5064523;28;20428;-51
2022/01/09 08:35:35;;;;;;;2.30;0.70;;;;;;;;;;5063331;28;20437;-51
2022/01/09 08:38:03;;;;;;;11.63;1.97;;;;;;;;;;5066394;28;20435;-51
2022/01/09 08:40:47;;;;;;;3.83;1.03;;;;;;;;;;5045023;28;20460;-51
2022/01/09 08:43:22;;;;;;;5.87;1.40;;;;;;;;;;5073933;28;21014;-51
2022/01/09 08:45:48;;;;;;;3.93;1.33;;;;;;;;;;5088401;28;20457;-50
2022/01/09 08:48:15;;;;;;;4.57;1.67;;;;;;;;;;5085204;28;20465;-50
2022/01/09 08:50:41;;;;;;;4.63;1.50;;;;;;;;;;5060865;28;20493;-51
2022/01/09 08:53:08;;;;;;;3.23;1.40;;;;;;;;;;5080652;28;20444;-51
2022/01/09 08:55:37;;;;;;;2.70;1.17;;;;;;;;;;5079483;28;20554;-51
2022/01/09 08:58:12;;;;;;;4.53;1.77;;;;;;;;;;5082682;28;20433;-51
2022/01/09 09:00:50;;;;;;;1.30;0.90;;;;;;;;;;5084650;28;20443;-53
2022/01/09 09:03:21;;;;;;;2.70;1.10;;;;;;;;;;5071251;28;20452;-52
2022/01/09 09:05:49;;;;;;;8.70;1.30;;;;;;;;;;5084219;28;21216;-52
2022/01/09 09:08:15;;;;;;;3.60;1.23;;;;;;;;;;5085426;28;20460;-51
2022/01/09 09:10:42;;;;;;;3.20;2.53;;;;;;;;;;5079635;28;20606;-51
2022/01/09 09:13:08;;;;;;;3.47;1.33;;;;;;;;;;5088763;28;20424;-51
2022/01/09 09:15:35;;;;;;;1.63;1.30;;;;;;;;;;5083344;28;21529;-51
2022/01/09 09:18:02;;;;;;;4.43;1.30;;;;;;;;;;5068093;28;20487;-51
2022/01/09 09:20:28;;;;;;;4.00;3.33;;;;;;;;;;5084593;28;20451;-50
2022/01/09 09:22:55;;;;;;;5.40;2.07;;;;;;;;;;5072736;28;20740;-50
2022/01/09 09:25:22;;;;;;;2.57;1.47;;;;;;;;;;5068970;28;20843;-52
2022/01/09 09:27:52;;;;;;;5.33;1.00;;;;;;;;;;5078536;28;20566;-52
2022/01/09 09:30:21;;;;;;;1.63;1.10;;;;;;;;;;5060293;28;20468;-52
2022/01/09 09:33:00;;;;;;;1.83;1.40;;;;;;;;;;5069404;28;23154;-55
2022/01/09 09:35:31;;;;;;;5.30;1.77;;;;;;;;;;5055715;28;20544;-51
2022/01/09 09:38:07;;;;;;;2.97;2.20;;;;;;;;;;5064985;28;20558;-52
2022/01/09 09:40:47;;;;;;;7.10;1.27;;;;;;;;;;5038555;28;20578;-51
2022/01/09 09:43:21;;;;;;;2.77;1.40;;;;;;;;;;5052535;28;20543;-51
2022/01/09 09:45:51;;;;;;;3.80;1.90;;;;;;;;;;5059356;28;20434;-52
2022/01/09 09:48:19;;;;;;;1.80;1.40;;;;;;;;;;5067019;28;20969;-52
2022/01/09 09:50:57;;;;;;;8.60;1.93;;;;;;;;;;5065214;28;20504;-52
2022/01/09 09:53:59;;;;;;;9.00;2.63;;;;;;;;;;5064635;28;20436;-58
2022/01/09 09:56:35;;;;;;;3.40;1.53;;;;;;;;;;5060686;28;20495;-51
2022/01/09 09:59:18;;;;;;;4.20;1.60;;;;;;;;;;5069684;28;21293;-52
2022/01/09 10:01:52;;;;;;;7.57;1.63;;;;;;;;;;5044001;28;20437;-51
2022/01/09 10:04:18;;;;;;;4.60;1.63;;;;;;;;;;5074912;28;20469;-51
2022/01/09 10:06:59;;;;;;;4.43;1.70;;;;;;;;;;5066398;28;20436;-51
2022/01/09 10:09:43;;;;;;;3.40;2.23;;;;;;;;;;5078359;28;20443;-52
2022/01/09 10:12:28;;;;;;;1.73;1.10;;;;;;;;;;5060946;28;20459;-52
2022/01/09 10:15:02;;;;;;;5.57;1.93;;;;;;;;;;5075180;28;20530;-51
2022/01/09 10:17:37;;;;;;;3.80;1.70;;;;;;;;;;5064071;28;20483;-52
2022/01/09 10:20:10;;;;;;;5.33;1.50;;;;;;;;;;5079249;28;20523;-51
2022/01/09 10:22:40;;;;;;;1.90;1.30;;;;;;;;;;5071832;28;20448;-51
2022/01/09 10:25:36;;;;;;;4.10;1.33;;;;;;;;;;5072076;28;21043;-53
2022/01/09 10:28:20;;;;;;;2.63;1.40;;;;;;;;;;5070171;28;20504;-52
2022/01/09 10:30:51;;;;;;;1.50;1.13;;;;;;;;;;5064624;28;20488;-52
2022/01/09 10:33:22;;;;;;;3.20;1.30;;;;;;;;;;5076878;28;20447;-53
2022/01/09 10:35:58;;;;;;;4.00;1.53;;;;;;;;;;5047334;28;20457;-51
2022/01/09 10:38:36;;;;;;;3.00;1.60;;;;;;;;;;5062943;28;20511;-52
2022/01/09 10:41:16;;;;;;;5.30;1.53;;;;;;;;;;5046046;28;20455;-51
2022/01/09 10:43:46;;;;;;;2.80;1.70;;;;;;;;;;5056159;28;21026;-51
2022/01/09 10:46:12;;;;;;;1.97;1.47;;;;;;;;;;5049511;28;24945;-50
2022/01/09 10:48:54;;;;;;;4.50;1.47;;;;;;;;;;5054286;28;20425;-52
2022/01/09 10:51:51;;;;;;;6.00;2.17;;;;;;;;;;5025851;28;20482;-52
2022/01/09 10:54:41;;;;;;;3.57;1.67;;;;;;;;;;5042540;28;20516;-50
2022/01/09 10:57:19;;;;;;;2.10;1.23;;;;;;;;;;5043670;28;20647;-51
2022/01/09 10:59:45;;;;;;;8.30;1.80;;;;;;;;;;5044551;28;21054;-51
2022/01/09 11:02:12;;;;;;;6.43;1.97;;;;;;;;;;5061739;28;22442;-52
2022/01/09 11:04:45;;;;;;;8.03;1.90;;;;;;;;;;5066263;28;20566;-52
2022/01/09 11:07:12;;;;;;;2.47;1.97;;;;;;;;;;5060748;28;20463;-52
2022/01/09 11:09:39;;;;;;;10.00;3.43;;;;;;;;;;5069606;28;21068;-51
2022/01/09 11:15:41;;;;;;;7.30;2.03;;;;;;;;;;5067946;28;20491;-52
2022/01/09 11:18:07;;;;;;;2.70;1.43;;;;;;;;;;5073136;28;20436;-52
2022/01/09 11:20:34;;;;;;;1.70;1.30;;;;;;;;;;5068873;28;20444;-51
2022/01/09 11:23:01;;;;;;;2.53;1.60;;;;;;;;;;5060878;28;20502;-51
2022/01/09 11:25:40;;;;;;;3.47;1.80;;;;;;;;;;5071780;28;20451;-51
2022/01/09 11:28:22;;;;;;;2.50;1.30;;;;;;;;;;5046383;28;20467;-52
2022/01/09 11:31:17;;;;;;;8.83;2.53;;;;;;;;;;5061177;28;20475;-54
2022/01/09 11:34:24;;;;;;;7.03;2.03;;;;;;;;;;5072584;28;20435;-51
2022/01/09 11:36:59;;;;;;;1.33;1.20;;;;;;;;;;5039176;28;20497;-54
2022/01/09 11:39:42;;;;;;;11.27;2.10;;;;;;;;;;5048781;28;22047;-51
2022/01/09 11:42:14;;;;;;;4.83;1.20;;;;;;;;;;5046571;28;20424;-50
2022/01/09 11:44:55;;;;;;;3.00;1.50;;;;;;;;;;5071825;28;20444;-51
2022/01/09 11:47:35;;;;;;;1.83;1.30;;;;;;;;;;5029452;28;22500;-51
2022/01/09 11:50:02;;;;;;;1.77;1.40;;;;;;;;;;5053865;28;21019;-49
2022/01/09 11:52:31;;;;;;;5.53;2.47;;;;;;;;;;5047054;28;20463;-50
2022/01/09 11:55:07;;;;;;;3.73;1.20;;;;;;;;;;5067061;28;20943;-51
2022/01/09 11:57:49;;;;;;;2.10;1.10;;;;;;;;;;5054309;28;20466;-50
2022/01/09 12:00:39;;;;;;;2.20;1.30;;;;;;;;;;5067851;28;21120;-52
2022/01/09 12:03:34;;;;;;;5.27;1.53;;;;;;;;;;5058400;28;20443;-52
2022/01/09 12:06:13;;;;;;;2.10;1.47;;;;;;;;;;5077334;28;20480;-53
2022/01/09 12:08:56;;;;;;;3.43;1.50;;;;;;;;;;5079864;28;20431;-51
2022/01/09 12:11:41;;;;;;;5.90;1.40;;;;;;;;;;5069927;28;21072;-52
2022/01/09 12:14:07;;;;;;;6.93;1.77;;;;;;;;;;5066777;28;22180;-50
2022/01/09 12:16:46;;;;;;;5.23;1.27;;;;;;;;;;5075906;28;20954;-51
2022/01/09 12:19:12;;;;;;;1.90;1.70;;;;;;;;;;5035014;28;20500;-51
2022/01/09 12:21:41;;;;;;;2.27;1.17;;;;;;;;;;5069615;28;21090;-51
2022/01/09 12:24:28;;;;;;;4.43;1.53;;;;;;;;;;5073669;28;20461;-51
2022/01/09 12:26:55;;;;;;;1.53;1.00;;;;;;;;;;5080894;28;20447;-51
2022/01/09 12:29:43;;;;;;;3.30;1.73;;;;;;;;;;5057855;28;20445;-51
2022/01/09 12:32:46;;;;;;;8.93;1.60;;;;;;;;;;5066709;28;20444;-50
2022/01/09 12:35:18;;;;;;;1.57;1.33;;;;;;;;;;5072487;28;20456;-52
2022/01/09 12:37:45;;;;;;;2.13;1.30;;;;;;;;;;5080575;28;20472;-51
2022/01/09 12:40:11;;;;;;;6.30;1.23;;;;;;;;;;5068338;28;20494;-50
2022/01/09 12:42:38;;;;;;;2.93;1.53;;;;;;;;;;5077592;28;20434;-51
2022/01/09 12:45:05;;;;;;;1.67;1.00;;;;;;;;;;5064199;28;20448;-51
2022/01/09 12:47:40;;;;;;;1.70;1.17;;;;;;;;;;5073038;28;20436;-50
2022/01/09 12:50:06;;;;;;;6.47;1.80;;;;;;;;;;5067557;28;20479;-51
2022/01/09 12:52:32;;;;;;;3.20;1.10;;;;;;;;;;5073538;28;20492;-51
2022/01/09 12:55:19;;;;;;;4.03;1.00;;;;;;;;;;5061943;28;20483;-51
2022/01/09 12:57:52;;;;;;;2.37;1.33;;;;;;;;;;5072954;28;20428;-50
2022/01/09 13:00:28;;;;;;;1.17;1.00;;;;;;;;;;5060251;28;20436;-51
2022/01/09 13:02:54;;;;;;;4.80;1.60;;;;;;;;;;5090292;27;20428;-50
2022/01/09 13:05:24;;;;;;;4.83;2.17;;;;;;;;;;5067961;28;20592;-51
2022/01/09 13:08:01;;;;;;;3.83;1.70;;;;;;;;;;5076925;28;20636;-51
2022/01/09 13:10:28;;;;;;;3.30;1.00;;;;;;;;;;5056245;28;20530;-51
2022/01/09 13:13:04;;;;;;;1.53;1.00;;;;;;;;;;5076538;28;20440;-51
2022/01/09 13:15:37;;;;;;;2.60;1.43;;;;;;;;;;5061331;28;20428;-51
2022/01/09 13:18:03;;;;;;;2.90;1.97;;;;;;;;;;5076665;28;20536;-51
2022/01/09 13:20:30;;;;;;;1.87;0.80;;;;;;;;;;5041537;28;20848;-49
2022/01/09 13:23:06;;;;;;;2.50;1.57;;;;;;;;;;5069317;28;20436;-51
2022/01/09 13:25:45;;;;;;;2.50;1.37;;;;;;;;;;5069309;28;20432;-51
2022/01/09 13:28:20;;;;;;;7.10;1.90;;;;;;;;;;5061195;28;20953;-52
2022/01/09 13:30:46;;;;;;;2.90;1.67;;;;;;;;;;5053829;28;20602;-50
2022/01/09 13:33:12;;;;;;;2.47;1.70;;;;;;;;;;5069896;28;20945;-51
2022/01/09 13:35:38;;;;;;;1.60;1.40;;;;;;;;;;5067149;28;20458;-51
2022/01/09 13:38:05;;;;;;;5.10;1.50;;;;;;;;;;5069994;28;20444;-51
2022/01/09 13:40:31;;;;;;;3.90;1.33;;;;;;;;;;5048794;28;20478;-51
2022/01/09 13:42:57;;;;;;;2.73;1.60;;;;;;;;;;5067481;28;20555;-50
2022/01/09 13:45:25;;;;;;;2.07;1.33;;;;;;;;;;5066250;28;20432;-52
2022/01/09 13:47:56;;;;;;;2.17;1.40;;;;;;;;;;5068067;28;20521;-51
2022/01/09 13:50:23;;;;;;;2.30;1.30;;;;;;;;;;5066311;28;20476;-52
2022/01/09 13:52:49;;;;;;;2.00;1.40;;;;;;;;;;5067817;28;20440;-50
2022/01/09 13:55:18;;;;;;;2.03;1.17;;;;;;;;;;5060497;28;21002;-50
2022/01/09 13:57:50;;;;;;;1.40;1.30;;;;;;;;;;5072197;28;20460;-51
2022/01/09 14:00:17;;;;;;;4.30;0.90;;;;;;;;;;5048977;28;21084;-50
2022/01/09 14:02:43;;;;;;;2.97;0.80;;;;;;;;;;5056892;28;20455;-50
2022/01/09 14:05:10;;;;;;;2.50;0.93;;;;;;;;;;5052883;28;20524;-52
2022/01/09 14:07:37;;;;;;;1.70;1.30;;;;;;;;;;5070615;28;20878;-51
2022/01/09 14:10:03;;;;;;;3.47;1.70;;;;;;;;;;5058471;28;20476;-51
2022/01/09 14:12:30;;;;;;;2.53;1.07;;;;;;;;;;5066087;28;20672;-50
2022/01/09 14:14:56;;;;;;;3.37;1.20;;;;;;;;;;5035289;28;20527;-52
2022/01/09 14:17:24;;;;;;;1.67;1.07;;;;;;;;;;5078170;28;20432;-51
2022/01/09 14:19:50;;;;;;;2.53;0.90;;;;;;;;;;5072550;28;20515;-51
2022/01/09 14:22:16;;;;;;;3.33;1.63;;;;;;;;;;5079347;28;20427;-51
2022/01/09 14:25:02;;;;;;;1.67;1.40;;;;;;;;;;5054096;28;20522;-51
2022/01/09 14:27:29;;;;;;;1.47;0.93;;;;;;;;;;5079544;28;20498;-52
2022/01/09 14:29:56;;;;;;;1.60;1.00;;;;;;;;;;5064438;28;20448;-50
2022/01/09 14:32:22;;;;;;;2.47;1.30;;;;;;;;;;5074505;28;20447;-50
2022/01/09 14:34:48;;;;;;;6.57;1.60;;;;;;;;;;5079173;28;20516;-50
2022/01/09 14:37:14;;;;;;;1.87;1.30;;;;;;;;;;5080215;28;20577;-52
2022/01/09 14:39:40;;;;;;;1.67;1.10;;;;;;;;;;5049686;28;20570;-50
2022/01/09 14:42:07;;;;;;;4.13;1.00;;;;;;;;;;5084368;28;20601;-51
2022/01/09 14:44:34;;;;;;;2.37;1.40;;;;;;;;;;5065490;28;20436;-52
2022/01/09 14:47:00;;;;;;;1.80;1.23;;;;;;;;;;5076360;28;21996;-53
2022/01/09 14:49:27;;;;;;;3.60;1.33;;;;;;;;;;5069617;28;20528;-51
2022/01/09 14:51:54;;;;;;;2.23;1.30;;;;;;;;;;5064981;28;20475;-52
2022/01/09 14:54:20;;;;;;;2.00;1.80;;;;;;;;;;5067908;28;20424;-50
2022/01/09 14:56:46;;;;;;;5.20;3.40;;;;;;;;;;5080797;28;20443;-50
2022/01/09 14:59:15;;;;;;;4.30;2.23;;;;;;;;;;5072628;28;20432;-51
2022/01/09 15:01:42;;;;;;;7.27;1.37;;;;;;;;;;5063246;28;20450;-51
2022/01/09 15:04:09;;;;;;;2.73;1.43;;;;;;;;;;5078107;28;20440;-51
2022/01/09 15:06:39;;;;;;;11.63;1.80;;;;;;;;;;5085722;28;21605;-52
2022/01/09 15:09:18;;;;;;;2.10;1.37;;;;;;;;;;5075437;28;20802;-54
2022/01/09 15:11:46;;;;;;;3.30;1.10;;;;;;;;;;5075341;28;21082;-53
2022/01/09 15:14:25;;;;;;;2.03;1.40;;;;;;;;;;5077982;28;20437;-52
2022/01/09 15:16:53;;;;;;;2.00;1.30;;;;;;;;;;5084858;28;20650;-52